createdAt,value
2023-01-21T00:01:45.908Z,52.50
2023-01-21T00:04:14.782Z,52.45
2023-01-21T00:06:43.337Z,53.26
2023-01-21T00:09:12.101Z,53.34
2023-01-21T00:11:40.945Z,53.10
2023-01-21T00:14:09.394Z,52.81
2023-01-21T00:16:37.766Z,53.62
2023-01-21T00:19:06.272Z,53.35
2023-01-21T00:21:34.670Z,52.85
2023-01-21T00:24:03.163Z,52.59
2023-01-21T00:26:31.816Z,52.69
2023-01-21T00:29:00.252Z,53.02
2023-01-21T00:31:28.784Z,53.53
2023-01-21T00:33:57.266Z,53.46
2023-01-21T00:36:29.699Z,53.39
2023-01-21T00:38:59.503Z,52.46
2023-01-21T00:41:28.081Z,52.94
2023-01-21T00:43:56.558Z,53.28
2023-01-21T00:46:25.077Z,53.03
2023-01-21T00:48:55.977Z,52.75
2023-01-21T00:51:24.402Z,52.16
2023-01-21T00:53:52.951Z,52.83
2023-01-21T00:56:21.619Z,52.78
2023-01-21T00:58:50.345Z,53.48
2023-01-21T01:01:22.222Z,52.91
2023-01-21T01:03:50.866Z,53.01
2023-01-21T01:06:21.263Z,53.00
2023-01-21T01:08:50.378Z,54.02
2023-01-21T01:11:21.566Z,53.51
2023-01-21T01:13:50.047Z,54.10
2023-01-21T01:16:18.798Z,53.08
2023-01-21T01:18:47.752Z,53.23
2023-01-21T01:21:18.321Z,52.69
2023-01-21T01:23:47.032Z,52.38
2023-01-21T01:26:17.775Z,52.12
2023-01-21T01:28:46.521Z,52.83
2023-01-21T01:31:17.258Z,52.89
2023-01-21T01:33:46.423Z,53.29
2023-01-21T01:36:18.505Z,52.61
2023-01-21T01:38:47.133Z,52.52
2023-01-21T01:41:23.148Z,53.15
2023-01-21T01:44:06.107Z,53.11
2023-01-21T01:46:36.562Z,52.85
2023-01-21T01:49:12.107Z,52.83
2023-01-21T01:51:46.563Z,52.58
2023-01-21T01:54:20.127Z,53.52
2023-01-21T01:56:53.012Z,52.59
2023-01-21T01:59:21.757Z,52.53
2023-01-21T02:01:50.332Z,52.71
2023-01-21T02:04:23.226Z,53.24
2023-01-21T02:06:54.532Z,53.90
2023-01-21T02:09:27.904Z,53.72
2023-01-21T02:11:59.330Z,53.74
2023-01-21T02:14:30.455Z,53.51
2023-01-21T02:17:36.064Z,52.73
2023-01-21T02:20:45.099Z,52.89
2023-01-21T02:23:54.231Z,53.83
2023-01-21T02:26:41.170Z,54.25
2023-01-21T02:29:31.053Z,53.71
2023-01-21T02:32:17.378Z,52.78
2023-01-21T02:35:05.552Z,53.08
2023-01-21T02:37:52.733Z,53.08
2023-01-21T02:40:29.224Z,53.03
2023-01-21T02:43:08.521Z,52.52
2023-01-21T02:45:46.313Z,52.46
2023-01-21T02:48:29.172Z,52.64
2023-01-21T02:50:57.808Z,52.67
2023-01-21T02:53:27.555Z,53.51
2023-01-21T02:56:00.740Z,54.13
2023-01-21T02:58:33.595Z,53.93
2023-01-21T03:01:08.018Z,53.15
2023-01-21T03:04:03.995Z,52.75
2023-01-21T03:06:39.028Z,52.53
2023-01-21T03:09:19.929Z,52.37
2023-01-21T03:12:13.185Z,52.75
2023-01-21T03:15:27.955Z,53.10
2023-01-21T03:18:03.897Z,52.67
2023-01-21T03:20:40.781Z,53.96
2023-01-21T03:23:23.906Z,53.44
2023-01-21T03:25:53.464Z,52.99
2023-01-21T03:28:25.959Z,53.31
2023-01-21T03:31:06.935Z,53.42
2023-01-21T03:33:39.680Z,53.50
2023-01-21T03:36:37.001Z,53.81
2023-01-21T03:39:14.316Z,53.68
2023-01-21T03:41:42.936Z,53.82
2023-01-21T03:44:11.422Z,53.87
2023-01-21T03:46:59.725Z,53.82
2023-01-21T03:49:31.069Z,54.41
2023-01-21T03:52:02.781Z,53.94
2023-01-21T03:54:31.819Z,54.26
2023-01-21T03:57:00.277Z,54.31
2023-01-21T03:59:28.821Z,53.86
2023-01-21T04:01:57.235Z,53.48
2023-01-21T04:04:25.688Z,53.59
2023-01-21T04:06:54.159Z,54.51
2023-01-21T04:09:22.759Z,54.25
2023-01-21T04:11:51.251Z,53.30
2023-01-21T04:14:19.686Z,53.72
2023-01-21T04:16:48.214Z,54.21
2023-01-21T04:19:16.666Z,54.12
2023-01-21T04:21:45.108Z,54.30
2023-01-21T04:24:13.558Z,53.84
2023-01-21T04:26:42.205Z,53.44
2023-01-21T04:29:10.604Z,53.71
2023-01-21T04:31:39.251Z,53.30
2023-01-21T04:34:07.806Z,53.87
2023-01-21T04:36:36.259Z,53.28
2023-01-21T04:39:05.027Z,52.78
2023-01-21T04:41:33.469Z,53.58
2023-01-21T04:44:02.162Z,53.63
2023-01-21T04:46:30.560Z,53.67
2023-01-21T04:48:59.176Z,54.46
2023-01-21T04:51:27.669Z,54.01
2023-01-21T04:53:56.111Z,53.89
2023-01-21T04:56:24.655Z,53.97
2023-01-21T04:58:53.039Z,54.18
2023-01-21T05:01:21.452Z,53.49
2023-01-21T05:03:49.945Z,53.19
2023-01-21T05:06:18.395Z,53.83
2023-01-21T05:08:46.743Z,53.45
2023-01-21T05:11:18.044Z,53.28
2023-01-21T05:13:46.604Z,54.13
2023-01-21T05:16:15.151Z,53.16
2023-01-21T05:18:46.725Z,53.24
2023-01-21T05:21:15.331Z,53.20
2023-01-21T05:23:43.764Z,53.87
2023-01-21T05:26:12.181Z,53.48
2023-01-21T05:28:40.671Z,54.07
2023-01-21T05:31:09.223Z,53.63
2023-01-21T05:33:37.783Z,54.98
2023-01-21T05:36:06.542Z,55.01
2023-01-21T05:38:34.998Z,54.06
2023-01-21T05:41:04.284Z,54.41
2023-01-21T05:43:32.963Z,54.26
2023-01-21T05:46:01.473Z,53.90
2023-01-21T05:48:30.014Z,53.91
2023-01-21T05:50:58.742Z,53.58
2023-01-21T05:53:27.435Z,53.64
2023-01-21T05:55:56.981Z,54.15
2023-01-21T05:58:26.094Z,53.43
2023-01-21T06:00:56.706Z,53.76
2023-01-21T06:03:25.762Z,54.14
2023-01-21T06:05:54.320Z,53.96
2023-01-21T06:08:23.490Z,54.42
2023-01-21T06:10:54.908Z,54.92
2023-01-21T06:13:24.199Z,54.39
2023-01-21T06:15:56.557Z,54.35
2023-01-21T06:18:25.514Z,53.87
2023-01-21T06:20:53.896Z,53.80
2023-01-21T06:23:22.887Z,53.39
2023-01-21T06:25:51.354Z,53.27
2023-01-21T06:28:19.692Z,53.47
2023-01-21T06:30:48.287Z,53.29
2023-01-21T06:33:16.766Z,53.67
2023-01-21T06:35:45.279Z,54.24
2023-01-21T06:38:14.235Z,54.04
2023-01-21T06:40:43.698Z,55.31
2023-01-21T06:43:12.115Z,54.79
2023-01-21T06:45:40.537Z,54.52
2023-01-21T06:48:09.099Z,54.06
2023-01-21T06:50:37.532Z,53.88
2023-01-21T06:53:06.044Z,53.65
2023-01-21T06:55:34.425Z,54.13
2023-01-21T06:58:02.874Z,54.49
2023-01-21T07:00:31.312Z,53.92
2023-01-21T07:03:00.455Z,54.71
2023-01-21T07:05:28.906Z,54.46
2023-01-21T07:07:57.780Z,54.29
2023-01-21T07:10:26.247Z,53.51
2023-01-21T07:12:54.715Z,53.89
2023-01-21T07:15:23.255Z,53.53
2023-01-21T07:17:54.010Z,53.66
2023-01-21T07:20:22.660Z,53.84
2023-01-21T07:22:51.246Z,54.02
2023-01-21T07:25:20.082Z,53.66
2023-01-21T07:27:48.639Z,53.48
2023-01-21T07:30:19.072Z,53.57
2023-01-21T07:32:47.805Z,52.70
2023-01-21T07:35:16.717Z,53.42
2023-01-21T07:37:45.417Z,53.05
2023-01-21T07:40:13.858Z,53.18
2023-01-21T07:42:42.340Z,53.70
2023-01-21T07:45:10.934Z,53.20
2023-01-21T07:47:39.481Z,53.97
2023-01-21T07:50:08.640Z,53.60
2023-01-21T07:52:37.262Z,53.75
2023-01-21T07:55:07.935Z,54.06
2023-01-21T07:57:36.526Z,53.69
2023-01-21T08:00:05.479Z,54.01
2023-01-21T08:02:34.012Z,53.79
2023-01-21T08:05:02.581Z,54.23
2023-01-21T08:07:30.947Z,54.25
2023-01-21T08:09:59.405Z,54.52
2023-01-21T08:12:28.412Z,54.29
2023-01-21T08:14:56.919Z,54.04
2023-01-21T08:17:25.406Z,53.88
2023-01-21T08:19:53.894Z,54.72
2023-01-21T08:22:23.093Z,55.59
2023-01-21T08:24:51.815Z,56.30
2023-01-21T08:27:20.188Z,56.21
2023-01-21T08:29:48.569Z,55.06
2023-01-21T08:32:17.089Z,54.97
2023-01-21T08:34:45.543Z,54.69
2023-01-21T08:37:14.110Z,55.27
2023-01-21T08:39:42.645Z,55.66
2023-01-21T08:42:11.044Z,56.77
2023-01-21T08:44:39.511Z,55.49
2023-01-21T08:47:07.919Z,55.50
2023-01-21T08:49:36.441Z,56.11
2023-01-21T08:52:05.045Z,55.96
2023-01-21T08:54:33.479Z,57.17
2023-01-21T08:57:01.896Z,56.88
2023-01-21T08:59:30.447Z,57.12
2023-01-21T09:01:58.960Z,57.54
2023-01-21T09:04:27.438Z,57.40
2023-01-21T09:06:55.929Z,57.33
2023-01-21T09:09:24.416Z,57.28
2023-01-21T09:11:52.885Z,59.59
2023-01-21T09:14:21.772Z,59.04
2023-01-21T09:16:50.805Z,58.88
2023-01-21T09:19:19.658Z,59.01
2023-01-21T09:21:48.383Z,57.54
2023-01-21T09:24:16.818Z,57.88
2023-01-21T09:26:45.318Z,57.05
2023-01-21T09:29:13.739Z,56.41
2023-01-21T09:31:42.250Z,56.32
2023-01-21T09:34:11.761Z,56.56
2023-01-21T09:36:40.348Z,55.92
2023-01-21T09:39:08.813Z,57.42
2023-01-21T09:41:45.608Z,56.63
2023-01-21T09:44:44.873Z,56.61
2023-01-21T09:47:38.303Z,57.24
2023-01-21T09:50:16.433Z,56.54
2023-01-21T09:52:48.023Z,56.71
2023-01-21T09:55:41.840Z,56.21
2023-01-21T09:58:27.083Z,57.79
2023-01-21T10:01:03.676Z,57.74
2023-01-21T10:03:54.718Z,57.68
2023-01-21T10:07:11.745Z,57.41
2023-01-21T10:09:40.169Z,58.04
2023-01-21T10:12:46.592Z,57.66
2023-01-21T10:15:21.129Z,56.96
2023-01-21T10:18:00.685Z,57.00
2023-01-21T10:20:33.656Z,56.85
2023-01-21T10:23:13.219Z,58.54
2023-01-21T10:25:41.845Z,58.18
2023-01-21T10:28:19.938Z,58.27
2023-01-21T10:31:01.587Z,58.40
2023-01-21T10:33:33.977Z,57.81
2023-01-21T10:36:02.257Z,58.76
2023-01-21T10:38:39.815Z,57.86
2023-01-21T10:41:32.729Z,56.34
2023-01-21T10:44:09.989Z,56.91
2023-01-21T10:46:49.119Z,56.16
2023-01-21T10:49:23.595Z,55.33
2023-01-21T10:52:03.805Z,55.07
2023-01-21T10:54:54.105Z,55.18
2023-01-21T10:57:29.873Z,54.63
2023-01-21T11:00:01.042Z,54.62
2023-01-21T11:02:32.127Z,54.67
2023-01-21T11:05:03.835Z,55.28
2023-01-21T11:07:38.006Z,54.82
2023-01-21T11:10:07.608Z,54.71
2023-01-21T11:12:36.057Z,53.42
2023-01-21T11:15:19.666Z,53.49
2023-01-21T11:17:53.742Z,53.40
2023-01-21T11:20:35.357Z,54.24
2023-01-21T11:23:24.287Z,53.42
2023-01-21T11:26:01.958Z,52.96
2023-01-21T11:28:30.639Z,53.49
2023-01-21T11:31:07.022Z,53.08
2023-01-21T11:33:37.281Z,53.58
2023-01-21T11:36:17.099Z,52.58
2023-01-21T11:38:48.778Z,52.51
2023-01-21T11:41:22.609Z,53.02
2023-01-21T11:43:56.281Z,53.10
2023-01-21T11:46:36.588Z,52.55
2023-01-21T11:49:08.026Z,52.35
2023-01-21T11:51:39.025Z,52.58
2023-01-21T11:54:24.331Z,53.10
2023-01-21T11:56:54.220Z,52.67
2023-01-21T11:59:38.949Z,52.66
2023-01-21T12:02:16.734Z,52.68
2023-01-21T12:04:55.120Z,52.60
2023-01-21T12:07:33.728Z,52.37
2023-01-21T12:10:12.487Z,52.20
2023-01-21T12:12:47.181Z,51.19
2023-01-21T12:15:54.726Z,52.31
2023-01-21T12:18:56.877Z,52.15
2023-01-21T12:21:43.835Z,52.40
2023-01-21T12:24:19.996Z,52.30
2023-01-21T12:27:03.943Z,52.54
2023-01-21T12:30:21.338Z,52.53
2023-01-21T12:33:05.298Z,52.27
2023-01-21T12:35:40.469Z,51.95
2023-01-21T12:38:22.857Z,52.25
2023-01-21T12:40:57.909Z,52.03
2023-01-21T12:43:36.744Z,52.44
2023-01-21T12:46:21.432Z,51.88
2023-01-21T12:49:04.859Z,52.07
2023-01-21T12:52:13.837Z,52.27
2023-01-21T12:54:50.531Z,51.74
2023-01-21T12:57:43.486Z,51.86
2023-01-21T13:00:11.880Z,52.41
2023-01-21T13:02:56.419Z,51.80
2023-01-21T13:05:46.306Z,51.87
2023-01-21T13:08:52.074Z,52.31
2023-01-21T13:11:25.587Z,51.60
2023-01-21T13:14:03.197Z,51.87
2023-01-21T13:16:34.758Z,51.93
2023-01-21T13:19:03.548Z,51.49
2023-01-21T13:21:40.680Z,51.05
2023-01-21T13:24:40.376Z,51.12
2023-01-21T13:27:16.448Z,50.74
2023-01-21T13:30:16.757Z,50.64
2023-01-21T13:33:10.130Z,50.79
2023-01-21T13:35:58.253Z,50.39
2023-01-21T13:38:42.088Z,50.92
2023-01-21T13:41:52.736Z,50.54
2023-01-21T13:44:56.750Z,50.58
2023-01-21T13:47:45.295Z,50.81
2023-01-21T13:50:25.070Z,51.04
2023-01-21T13:53:27.516Z,51.10
2023-01-21T13:56:15.334Z,51.28
2023-01-21T13:58:57.828Z,51.59
2023-01-21T14:01:34.889Z,51.88
2023-01-21T14:04:32.370Z,51.67
2023-01-21T14:07:13.189Z,51.11
2023-01-21T14:10:06.924Z,50.92
2023-01-21T14:12:48.428Z,51.16
2023-01-21T14:15:40.431Z,51.57
2023-01-21T14:18:19.691Z,51.92
2023-01-21T14:21:08.248Z,51.73
2023-01-21T14:23:39.584Z,51.05
2023-01-21T14:26:29.784Z,51.09
2023-01-21T14:29:10.577Z,50.22
2023-01-21T14:31:44.772Z,50.10
2023-01-21T14:34:23.333Z,50.32
2023-01-21T14:37:41.215Z,49.85
2023-01-21T14:40:16.542Z,49.89
2023-01-21T14:42:49.267Z,50.43
2023-01-21T14:45:25.052Z,50.11
2023-01-21T14:47:55.416Z,50.16
2023-01-21T14:50:45.858Z,49.83
2023-01-21T14:53:21.744Z,49.81
2023-01-21T14:56:26.701Z,49.82
2023-01-21T14:58:59.463Z,49.76
2023-01-21T15:01:44.795Z,49.08
2023-01-21T15:04:31.974Z,49.04
2023-01-21T15:07:10.119Z,48.80
2023-01-21T15:09:44.002Z,48.40
2023-01-21T15:12:46.052Z,48.68
2023-01-21T15:15:36.853Z,48.33
2023-01-21T15:18:26.478Z,48.87
2023-01-21T15:20:58.235Z,48.66
2023-01-21T15:23:29.739Z,48.93
2023-01-21T15:26:13.040Z,48.42
2023-01-21T15:28:45.699Z,48.12
2023-01-21T15:31:20.167Z,47.70
2023-01-21T15:34:02.280Z,47.81
2023-01-21T15:36:42.458Z,47.70
2023-01-21T15:39:17.566Z,47.56
2023-01-21T15:42:12.628Z,47.90
2023-01-21T15:44:51.789Z,47.51
2023-01-21T15:47:41.944Z,48.68
2023-01-21T15:50:21.168Z,48.65
2023-01-21T15:52:58.657Z,48.66
2023-01-21T15:55:56.783Z,48.04
2023-01-21T15:58:44.057Z,48.29
2023-01-21T16:01:38.066Z,48.17
2023-01-21T16:04:35.642Z,48.33
2023-01-21T16:07:26.425Z,48.70
2023-01-21T16:10:20.503Z,49.02
2023-01-21T16:13:08.392Z,48.46
2023-01-21T16:16:03.477Z,48.16
2023-01-21T16:18:59.263Z,47.72
2023-01-21T16:21:36.010Z,49.56
2023-01-21T16:24:13.174Z,48.49
2023-01-21T16:26:41.628Z,48.35
2023-01-21T16:29:13.288Z,49.01
2023-01-21T16:31:48.966Z,48.42
2023-01-21T16:34:36.111Z,49.10
2023-01-21T16:37:11.849Z,49.19
2023-01-21T16:39:44.066Z,48.77
2023-01-21T16:42:34.246Z,48.68
2023-01-21T16:45:15.167Z,48.42
2023-01-21T16:47:44.442Z,48.89
2023-01-21T16:50:21.072Z,48.59
2023-01-21T16:52:50.775Z,48.41
2023-01-21T16:55:27.765Z,48.38
2023-01-21T16:57:58.448Z,48.56
2023-01-21T17:00:32.299Z,47.75
2023-01-21T17:03:00.873Z,48.15
2023-01-21T17:05:34.032Z,48.53
2023-01-21T17:08:09.079Z,49.03
2023-01-21T17:10:47.011Z,48.90
2023-01-21T17:13:16.070Z,47.98
2023-01-21T17:15:57.106Z,48.63
2023-01-21T17:18:30.440Z,48.32
2023-01-21T17:21:08.271Z,48.55
2023-01-21T17:23:47.689Z,49.02
2023-01-21T17:26:20.069Z,48.75
2023-01-21T17:28:57.870Z,48.33
2023-01-21T17:31:28.010Z,48.86
2023-01-21T17:34:18.456Z,48.57
2023-01-21T17:36:50.603Z,51.65
2023-01-21T17:39:37.707Z,49.99
2023-01-21T17:42:14.349Z,50.76
2023-01-21T17:44:53.575Z,51.41
2023-01-21T17:47:27.744Z,51.18
2023-01-21T17:49:59.139Z,51.17
2023-01-21T17:52:28.060Z,50.12
2023-01-21T17:55:25.530Z,50.29
2023-01-21T17:57:54.349Z,50.67
2023-01-21T18:00:44.301Z,50.12
2023-01-21T18:03:12.891Z,50.31
2023-01-21T18:05:43.123Z,51.15
2023-01-21T18:08:16.564Z,50.70
2023-01-21T18:10:46.519Z,50.74
2023-01-21T18:13:20.418Z,50.52
2023-01-21T18:15:51.674Z,50.65
2023-01-21T18:18:28.973Z,51.56
2023-01-21T18:20:57.525Z,50.97
2023-01-21T18:23:25.940Z,51.50
2023-01-21T18:25:54.538Z,53.92
2023-01-21T18:28:28.410Z,53.09
2023-01-21T18:30:58.019Z,52.89
2023-01-21T18:33:26.766Z,52.43
2023-01-21T18:35:55.345Z,52.61
2023-01-21T18:38:29.744Z,53.57
2023-01-21T18:40:58.994Z,55.59
2023-01-21T18:43:27.531Z,54.68
2023-01-21T18:45:56.211Z,54.88
2023-01-21T18:48:29.472Z,54.08
2023-01-21T18:50:57.914Z,55.17
2023-01-21T18:53:26.924Z,55.52
2023-01-21T18:55:55.755Z,54.68
2023-01-21T18:58:24.374Z,53.35
2023-01-21T19:00:52.777Z,55.03
2023-01-21T19:03:23.194Z,53.84
2023-01-21T19:05:52.036Z,54.15
2023-01-21T19:08:24.725Z,55.12
2023-01-21T19:10:54.198Z,53.88
2023-01-21T19:13:22.886Z,53.45
2023-01-21T19:15:51.803Z,57.25
2023-01-21T19:18:20.471Z,54.12
2023-01-21T19:20:48.949Z,54.77
2023-01-21T19:23:17.799Z,54.99
2023-01-21T19:25:57.458Z,54.79
2023-01-21T19:28:25.998Z,53.78
2023-01-21T19:30:58.440Z,54.10
2023-01-21T19:33:26.988Z,54.48
2023-01-21T19:36:10.128Z,53.81
2023-01-21T19:38:38.787Z,55.10
2023-01-21T19:41:07.765Z,54.06
2023-01-21T19:43:36.326Z,53.41
2023-01-21T19:46:11.376Z,53.99
2023-01-21T19:48:40.574Z,54.58
2023-01-21T19:51:09.227Z,54.95
2023-01-21T19:53:37.708Z,55.65
2023-01-21T19:56:06.892Z,58.76
2023-01-21T19:58:35.814Z,55.77
2023-01-21T20:01:04.663Z,56.17
2023-01-21T20:03:33.160Z,56.74
2023-01-21T20:06:03.522Z,58.77
2023-01-21T20:08:32.960Z,56.28
2023-01-21T20:11:01.404Z,57.36
2023-01-21T20:13:32.294Z,55.05
2023-01-21T20:16:03.717Z,56.22
2023-01-21T20:18:35.182Z,57.01
2023-01-21T20:21:03.759Z,58.80
2023-01-21T20:23:32.674Z,58.30
2023-01-21T20:26:01.307Z,59.25
2023-01-21T20:28:44.426Z,57.69
2023-01-21T20:31:13.689Z,56.69
2023-01-21T20:33:44.017Z,55.48
2023-01-21T20:36:25.403Z,55.12
2023-01-21T20:38:54.351Z,55.46
2023-01-21T20:41:23.170Z,58.58
2023-01-21T20:43:51.608Z,56.96
2023-01-21T20:46:26.962Z,56.10
2023-01-21T20:48:56.751Z,55.41
2023-01-21T20:51:26.528Z,56.28
2023-01-21T20:53:55.141Z,54.79
2023-01-21T20:56:30.690Z,56.45
2023-01-21T20:58:59.410Z,58.26
2023-01-21T21:01:28.718Z,56.88
2023-01-21T21:03:57.171Z,58.07
2023-01-21T21:06:29.093Z,58.41
2023-01-21T21:08:57.926Z,56.07
2023-01-21T21:11:26.586Z,56.63
2023-01-21T21:13:56.075Z,55.39
2023-01-21T21:16:31.723Z,55.38
2023-01-21T21:19:00.755Z,54.40
2023-01-21T21:21:29.356Z,54.99
2023-01-21T21:23:57.848Z,56.30
2023-01-21T21:26:29.278Z,56.10
2023-01-21T21:28:58.059Z,55.95
2023-01-21T21:31:31.910Z,58.03
2023-01-21T21:34:00.576Z,57.53
2023-01-21T21:36:29.048Z,55.52
2023-01-21T21:39:00.118Z,55.92
2023-01-21T21:41:48.905Z,55.25
2023-01-21T21:44:17.286Z,54.71
2023-01-21T21:47:04.090Z,56.54
2023-01-21T21:49:32.737Z,57.27
2023-01-21T21:52:01.218Z,58.65
2023-01-21T21:54:29.720Z,58.63
2023-01-21T21:56:58.199Z,59.56
2023-01-21T21:59:26.735Z,59.71
2023-01-21T22:01:55.238Z,59.26
2023-01-21T22:04:24.116Z,58.61
2023-01-21T22:06:52.667Z,57.05
2023-01-21T22:09:21.205Z,57.35
2023-01-21T22:11:49.631Z,57.39
2023-01-21T22:14:18.101Z,56.81
2023-01-21T22:16:49.786Z,56.54
2023-01-21T22:19:18.241Z,59.51
2023-01-21T22:21:46.802Z,59.25
2023-01-21T22:24:15.814Z,59.60
2023-01-21T22:26:44.353Z,59.53
2023-01-21T22:29:12.839Z,57.18
2023-01-21T22:31:41.463Z,58.70
2023-01-21T22:34:11.490Z,57.15
2023-01-21T22:36:39.935Z,58.43
2023-01-21T22:39:08.531Z,58.44
2023-01-21T22:41:37.044Z,57.88
2023-01-21T22:44:05.621Z,57.68
2023-01-21T22:46:34.187Z,57.17
2023-01-21T22:49:02.778Z,55.73
2023-01-21T22:51:31.310Z,56.04
2023-01-21T22:54:02.742Z,55.54
2023-01-21T22:56:49.966Z,55.52
2023-01-21T22:59:19.260Z,56.38
2023-01-21T23:01:48.807Z,57.56
2023-01-21T23:04:17.763Z,58.44
2023-01-21T23:06:48.550Z,57.32
2023-01-21T23:09:17.124Z,56.95
2023-01-21T23:11:45.688Z,57.59
2023-01-21T23:14:14.249Z,56.73
2023-01-21T23:16:43.852Z,57.15
2023-01-21T23:19:13.014Z,57.26
2023-01-21T23:21:41.566Z,57.52
2023-01-21T23:24:10.247Z,56.29
2023-01-21T23:26:38.683Z,58.96
2023-01-21T23:29:07.133Z,58.68
2023-01-21T23:31:35.816Z,56.94
2023-01-21T23:34:04.479Z,58.98
2023-01-21T23:36:32.874Z,56.27
2023-01-21T23:39:01.454Z,56.43
2023-01-21T23:41:29.993Z,56.65
2023-01-21T23:44:00.393Z,55.92
2023-01-21T23:46:29.039Z,57.12
2023-01-21T23:48:57.473Z,56.59
2023-01-21T23:51:26.030Z,58.46
2023-01-21T23:53:56.443Z,56.54
2023-01-21T23:56:25.563Z,57.39
2023-01-21T23:58:54.296Z,57.13
